Time;durP1;ratioP1;P1;durP2;ratioP2;P2;SDS_P1;SDS_P2;PMS_P1;PMS_P2;Temp;Humidity;BMP_temperature;BMP_pressure;BME280_temperature;BME280_humidity;BME280_pressure;Samples;Min_cycle;Max_cycle;Signal;HPM_P1;HPM_P2
2022/07/18 00:01:20;;;;;;;6.57;1.90;;;;;;;23.10;58.85;101626.00;4957279;29;20031;-75
2022/07/18 00:04:06;;;;;;;11.13;1.90;;;;;;;23.14;59.46;101640.91;4957530;28;20039;-76
2022/07/18 00:06:52;;;;;;;4.65;1.73;;;;;;;22.95;59.70;101633.03;4956712;29;20106;-75
2022/07/18 00:09:39;;;;;;;7.60;2.10;;;;;;;23.12;59.07;101641.00;4957581;29;20138;-75
2022/07/18 00:12:25;;;;;;;4.45;1.65;;;;;;;22.83;60.02;101654.22;4956569;29;20098;-75
2022/07/18 00:15:11;;;;;;;6.18;1.95;;;;;;;23.04;59.78;101656.63;4943103;29;20418;-76
2022/07/18 00:17:57;;;;;;;6.43;2.30;;;;;;;22.88;60.62;101663.75;4956469;29;20035;-75
2022/07/18 00:20:43;;;;;;;9.98;2.13;;;;;;;23.04;59.73;101663.78;4957311;29;20110;-75
2022/07/18 00:23:28;;;;;;;9.45;2.50;;;;;;;22.96;60.32;101666.00;4956807;28;20031;-75
2022/07/18 00:26:14;;;;;;;10.13;2.40;;;;;;;22.98;59.22;101672.97;4956517;29;20434;-75
2022/07/18 00:29:00;;;;;;;7.40;2.30;;;;;;;22.85;60.63;101669.25;4956701;29;20031;-75
2022/07/18 00:31:46;;;;;;;6.88;1.80;;;;;;;22.89;59.86;101664.59;4955921;29;20381;-76
2022/07/18 00:34:33;;;;;;;6.18;1.50;;;;;;;22.75;59.43;101672.47;4943396;29;20027;-75
2022/07/18 00:37:18;;;;;;;7.05;1.67;;;;;;;22.60;59.78;101689.31;4955882;29;20450;-76
2022/07/18 00:40:05;;;;;;;3.33;1.52;;;;;;;22.60;60.34;101679.50;4956824;29;20034;-75
2022/07/18 00:42:51;;;;;;;5.88;2.00;;;;;;;22.87;58.82;101690.53;4956658;29;20038;-75
2022/07/18 00:45:36;;;;;;;2.65;1.60;;;;;;;22.72;59.52;101694.00;4956947;29;20023;-75
2022/07/18 00:48:22;;;;;;;8.80;1.80;;;;;;;22.49;60.64;101692.53;4956534;29;20060;-75
2022/07/18 00:51:09;;;;;;;6.57;2.28;;;;;;;22.45;61.24;101690.03;4955993;28;20058;-75
2022/07/18 00:53:55;;;;;;;8.38;2.17;;;;;;;22.41;61.13;101692.00;4955466;28;20063;-76
2022/07/18 00:56:41;;;;;;;9.00;2.03;;;;;;;22.58;61.10;101705.41;4955984;29;20122;-76
2022/07/18 01:01:42;;;;;;;13.65;2.80;;;;;;;22.44;61.32;101707.03;4955549;29;20039;-75
2022/07/18 01:02:34;;;;;;;12.35;3.00;;;;;;;22.57;60.71;101700.13;4956561;29;20458;-76
2022/07/18 01:05:20;;;;;;;9.88;2.63;;;;;;;22.56;60.36;101699.28;4955736;28;20102;-75
2022/07/18 01:08:06;;;;;;;5.82;1.63;;;;;;;22.58;60.30;101708.06;4942935;29;20024;-75
2022/07/18 01:10:53;;;;;;;5.13;1.90;;;;;;;22.52;60.68;101711.06;4955376;29;20031;-76
2022/07/18 01:13:40;;;;;;;5.57;1.95;;;;;;;22.51;61.26;101713.81;4955291;28;20031;-75
2022/07/18 01:16:26;;;;;;;7.35;2.40;;;;;;;22.11;62.91;101709.56;4956643;29;20023;-74
2022/07/18 01:19:12;;;;;;;7.95;2.33;;;;;;;22.41;62.00;101707.16;4955595;29;20032;-76
2022/07/18 01:21:57;;;;;;;6.18;2.40;;;;;;;22.11;62.73;101712.22;4956246;29;20458;-75
2022/07/18 01:24:43;;;;;;;3.15;2.00;;;;;;;22.44;62.10;101713.25;4956160;28;20024;-75
2022/07/18 01:27:29;;;;;;;5.53;1.95;;;;;;;22.61;61.45;101715.06;4956186;29;20051;-75
2022/07/18 01:30:15;;;;;;;4.72;1.70;;;;;;;22.25;63.25;101724.91;4956089;29;20474;-75
2022/07/18 01:33:02;;;;;;;5.80;1.73;;;;;;;22.24;63.31;101724.06;4955856;29;20034;-75
2022/07/18 01:35:48;;;;;;;5.65;1.73;;;;;;;22.02;64.51;101728.69;4955860;29;20040;-75
2022/07/18 01:38:34;;;;;;;2.75;1.60;;;;;;;21.96;64.05;101733.47;4955660;29;20106;-75
2022/07/18 01:41:20;;;;;;;8.40;1.70;;;;;;;22.35;62.53;101731.53;4956527;29;20114;-75
2022/07/18 01:44:07;;;;;;;6.63;1.73;;;;;;;22.07;63.96;101734.66;4956494;28;20031;-75
2022/07/18 01:46:53;;;;;;;3.42;1.58;;;;;;;21.85;65.26;101728.66;4955634;29;20082;-75
2022/07/18 01:49:39;;;;;;;4.05;1.60;;;;;;;21.98;64.82;101734.28;4955466;29;20087;-75
2022/07/18 01:52:25;;;;;;;5.80;1.52;;;;;;;21.98;64.01;101728.94;4955846;29;20038;-75
2022/07/18 01:55:11;;;;;;;4.07;1.50;;;;;;;21.89;64.63;101732.91;4955782;28;20031;-75
2022/07/18 01:57:57;;;;;;;4.35;1.60;;;;;;;22.04;64.37;101731.28;4942910;29;20350;-75
2022/07/18 02:00:43;;;;;;;3.95;1.58;;;;;;;21.89;64.18;101737.38;4955298;29;20031;-76
2022/07/18 02:03:28;;;;;;;1.85;1.40;;;;;;;21.97;63.85;101736.06;4955818;28;20045;-75
2022/07/18 02:06:14;;;;;;;3.83;1.50;;;;;;;21.73;64.50;101745.25;4955689;28;20451;-75
2022/07/18 02:09:00;;;;;;;2.33;1.33;;;;;;;22.06;63.30;101743.63;4942390;29;20023;-75
2022/07/18 02:11:45;;;;;;;4.13;1.60;;;;;;;22.18;62.38;101732.34;4955709;29;20186;-75
2022/07/18 02:14:31;;;;;;;4.55;1.70;;;;;;;21.84;64.01;101740.28;4955786;28;20082;-75
2022/07/18 02:17:19;;;;;;;3.55;1.30;;;;;;;21.98;63.17;101747.63;4956124;29;20106;-74
2022/07/18 02:20:07;;;;;;;3.42;1.75;;;;;;;21.71;65.06;101749.81;4956618;29;20119;-75
2022/07/18 02:22:53;;;;;;;7.85;1.38;;;;;;;21.53;66.59;101747.94;4955290;28;20482;-75
2022/07/18 02:25:38;;;;;;;7.22;1.42;;;;;;;21.51;67.55;101747.16;4958353;29;20037;-75
2022/07/18 02:28:24;;;;;;;2.78;1.50;;;;;;;21.85;65.65;101755.34;4959180;29;20031;-76
2022/07/18 02:31:10;;;;;;;4.63;1.60;;;;;;;21.66;66.27;101770.44;4944786;29;20035;-75
2022/07/18 02:33:55;;;;;;;5.65;1.60;;;;;;;21.46;67.22;101777.63;4945164;29;20097;-75
2022/07/18 02:36:42;;;;;;;2.40;1.40;;;;;;;21.52;67.13;101785.34;4958842;29;20444;-75
2022/07/18 02:39:28;;;;;;;2.35;1.60;;;;;;;21.53;68.00;101787.06;4945616;29;20042;-75
2022/07/18 02:42:14;;;;;;;3.85;1.50;;;;;;;21.52;67.78;101788.00;4958486;29;20417;-75
2022/07/18 02:44:59;;;;;;;4.47;2.10;;;;;;;21.70;67.59;101796.06;4958300;28;20032;-76
2022/07/18 02:47:45;;;;;;;4.60;1.40;;;;;;;21.73;67.16;101795.06;4958452;29;20072;-74
2022/07/18 02:50:31;;;;;;;3.63;1.50;;;;;;;21.57;67.71;101807.34;4958289;29;20369;-75
2022/07/18 02:53:19;;;;;;;4.50;1.33;;;;;;;21.56;67.55;101811.81;4958956;28;20031;-76
2022/07/18 02:56:05;;;;;;;1.88;1.35;;;;;;;21.46;68.70;101822.97;4958361;29;20031;-74
2022/07/18 02:58:50;;;;;;;2.15;1.23;;;;;;;21.38;69.41;101827.78;4957526;29;20038;-75
2022/07/18 03:01:36;;;;;;;4.90;1.55;;;;;;;21.12;70.88;101830.69;4959320;29;20089;-75
2022/07/18 03:04:23;;;;;;;4.13;1.88;;;;;;;21.15;71.68;101843.91;4958498;28;20031;-75
2022/07/18 03:07:09;;;;;;;2.30;1.55;;;;;;;21.04;72.33;101835.50;4957600;29;20023;-75
2022/07/18 03:09:55;;;;;;;7.28;1.52;;;;;;;20.77;73.67;101840.16;4944798;29;20045;-75
2022/07/18 03:12:42;;;;;;;2.17;1.20;;;;;;;21.02;72.20;101840.03;4958195;29;20038;-76
2022/07/18 03:15:28;;;;;;;4.03;1.70;;;;;;;21.16;72.22;101845.63;4957859;28;20031;-75
2022/07/18 03:18:13;;;;;;;5.63;1.50;;;;;;;21.34;71.53;101848.34;4957459;29;20031;-75
2022/07/18 03:20:59;;;;;;;2.92;1.38;;;;;;;21.32;70.60;101844.03;4958456;29;20023;-75
2022/07/18 03:23:45;;;;;;;3.63;1.58;;;;;;;21.57;69.62;101853.56;4957982;28;20038;-75
2022/07/18 03:26:31;;;;;;;3.25;1.38;;;;;;;21.12;70.59;101852.91;4957921;29;20050;-75
2022/07/18 03:29:16;;;;;;;4.25;1.50;;;;;;;20.96;72.75;101851.81;4957549;29;20039;-75
2022/07/18 03:32:02;;;;;;;3.22;1.40;;;;;;;21.28;71.42;101851.31;4957199;29;20031;-75
2022/07/18 03:34:48;;;;;;;5.28;1.50;;;;;;;21.64;69.89;101859.47;4957363;28;20042;-75
2022/07/18 03:37:34;;;;;;;1.90;1.23;;;;;;;21.44;69.77;101867.50;4957566;29;20039;-75
2022/07/18 03:40:20;;;;;;;2.58;1.20;;;;;;;21.54;69.42;101852.84;4957184;29;20089;-76
2022/07/18 03:43:05;;;;;;;5.05;1.58;;;;;;;21.70;67.58;101859.22;4957043;29;20489;-75
2022/07/18 03:45:51;;;;;;;4.05;1.50;;;;;;;21.26;69.24;101857.66;4957732;29;20042;-75
2022/07/18 03:48:37;;;;;;;4.28;1.27;;;;;;;21.48;69.66;101859.31;4944610;28;20462;-74
2022/07/18 03:51:23;;;;;;;3.05;1.38;;;;;;;21.59;68.67;101867.69;4944481;28;20047;-75
2022/07/18 03:54:09;;;;;;;6.28;1.45;;;;;;;21.47;68.81;101865.59;4957533;28;20028;-75
2022/07/18 03:56:55;;;;;;;9.88;1.40;;;;;;;21.70;68.79;101870.75;4957118;29;20039;-75
2022/07/18 03:59:41;;;;;;;6.75;1.40;;;;;;;21.55;70.07;101863.44;4957410;29;20027;-75
2022/07/18 04:02:27;;;;;;;1.92;1.30;;;;;;;21.88;69.00;101867.28;4956838;29;20406;-75
2022/07/18 04:05:14;;;;;;;6.55;1.33;;;;;;;21.49;70.32;101869.03;4956698;28;20122;-75
2022/07/18 04:07:59;;;;;;;2.60;1.17;;;;;;;21.87;69.81;101872.69;4956770;29;20343;-75
2022/07/18 04:10:45;;;;;;;3.17;1.65;;;;;;;21.96;70.11;101873.13;4957155;29;20020;-76
2022/07/18 04:13:31;;;;;;;3.40;1.80;;;;;;;21.38;73.06;101870.44;4956940;28;20094;-75
2022/07/18 04:16:16;;;;;;;4.32;2.03;;;;;;;21.74;71.98;101871.50;4957620;29;20023;-75
2022/07/18 04:19:02;;;;;;;3.60;1.50;;;;;;;21.58;72.24;101878.44;4956295;29;20036;-75
2022/07/18 04:21:48;;;;;;;2.85;1.40;;;;;;;21.66;71.42;101873.63;4956564;29;20031;-76
2022/07/18 04:24:34;;;;;;;5.38;1.65;;;;;;;21.67;72.13;101878.91;4956765;28;20042;-74
2022/07/18 04:27:20;;;;;;;1.80;1.30;;;;;;;21.76;71.33;101873.19;4956790;29;20051;-75
2022/07/18 04:30:06;;;;;;;3.13;1.40;;;;;;;21.70;69.13;101880.56;4956901;29;20027;-76
2022/07/18 04:32:53;;;;;;;5.68;1.60;;;;;;;21.76;71.32;101878.50;4942894;29;20406;-75
2022/07/18 04:35:39;;;;;;;2.63;1.50;;;;;;;22.21;68.01;101872.84;4956401;29;20106;-75
2022/07/18 04:38:25;;;;;;;3.25;1.60;;;;;;;21.92;69.37;101874.22;4956311;29;20382;-75
2022/07/18 04:41:11;;;;;;;6.80;1.85;;;;;;;21.63;70.65;101873.75;4956706;29;20501;-75
2022/07/18 04:43:56;;;;;;;3.35;1.40;;;;;;;21.90;69.58;101872.56;4956288;28;20035;-75
2022/07/18 04:46:42;;;;;;;1.70;1.30;;;;;;;21.71;70.01;101872.53;4955538;28;20038;-76
2022/07/18 04:49:28;;;;;;;2.13;1.27;;;;;;;21.61;71.67;101884.50;4956503;29;20035;-76
2022/07/18 04:52:14;;;;;;;2.85;1.50;;;;;;;22.22;67.45;101877.25;4956741;29;20094;-75
2022/07/18 04:54:59;;;;;;;4.88;1.40;;;;;;;21.89;68.28;101881.47;4956286;28;20030;-76
2022/07/18 04:57:45;;;;;;;8.10;2.00;;;;;;;22.13;69.59;101885.69;4956288;29;20032;-76
2022/07/18 05:00:31;;;;;;;2.15;1.40;;;;;;;21.74;70.39;101887.53;4956304;29;20071;-76
2022/07/18 05:03:17;;;;;;;6.05;1.90;;;;;;;22.26;69.69;101890.38;4942739;28;20450;-76
2022/07/18 05:06:03;;;;;;;5.18;1.77;;;;;;;22.18;69.85;101889.88;4955806;29;20041;-75
2022/07/18 05:08:48;;;;;;;3.30;1.58;;;;;;;21.83;71.14;101892.44;4956351;29;20027;-75
2022/07/18 05:11:34;;;;;;;6.85;2.03;;;;;;;22.28;69.72;101893.84;4955753;29;20035;-76
2022/07/18 05:14:20;;;;;;;5.97;2.08;;;;;;;22.00;72.04;101901.41;4956364;28;20023;-76
2022/07/18 05:17:06;;;;;;;4.72;2.20;;;;;;;22.24;71.02;101905.63;4956121;29;20142;-75
2022/07/18 05:19:52;;;;;;;7.05;1.85;;;;;;;22.32;71.66;101902.59;4955832;29;20023;-75
2022/07/18 05:22:38;;;;;;;5.53;1.63;;;;;;;22.43;70.10;101910.97;4956211;29;20554;-75
2022/07/18 05:25:24;;;;;;;4.60;2.05;;;;;;;22.52;69.46;101906.09;4955537;28;20031;-76
2022/07/18 05:28:09;;;;;;;3.17;1.63;;;;;;;22.01;71.38;101923.63;4956454;29;20047;-75
2022/07/18 05:30:55;;;;;;;5.88;1.58;;;;;;;22.38;68.17;101926.34;4956051;29;20110;-75
2022/07/18 05:33:41;;;;;;;1.55;1.30;;;;;;;22.45;65.73;101928.66;4955744;28;20114;-75
2022/07/18 05:36:27;;;;;;;4.20;1.58;;;;;;;22.81;63.89;101923.34;4942475;29;20023;-75
2022/07/18 05:39:13;;;;;;;5.25;1.30;;;;;;;22.74;63.67;101927.25;4955513;28;20090;-75
2022/07/18 05:41:58;;;;;;;2.83;1.30;;;;;;;22.85;59.57;101920.47;4955004;29;20054;-76
2022/07/18 05:44:45;;;;;;;3.33;1.30;;;;;;;22.44;60.11;101924.25;4956014;28;20035;-75
2022/07/18 05:47:31;;;;;;;7.03;1.60;;;;;;;22.92;58.57;101929.06;4955611;29;20038;-75
2022/07/18 05:50:17;;;;;;;1.80;1.13;;;;;;;22.75;57.37;101931.69;4955975;29;20426;-75
2022/07/18 05:53:02;;;;;;;4.95;1.67;;;;;;;22.97;55.93;101933.25;4955864;29;20118;-75
2022/07/18 05:55:48;;;;;;;3.53;1.30;;;;;;;22.83;55.04;101935.69;4955918;29;20027;-75
2022/07/18 05:58:34;;;;;;;4.85;1.30;;;;;;;22.86;55.62;101932.88;4958878;28;20038;-76
2022/07/18 06:01:20;;;;;;;3.17;1.58;;;;;;;23.02;54.70;101927.66;4959457;29;20027;-75
2022/07/18 06:04:05;;;;;;;7.18;1.40;;;;;;;23.01;55.28;101923.25;4959913;28;20093;-75
2022/07/18 06:06:51;;;;;;;3.58;1.60;;;;;;;23.10;54.24;101931.69;4959679;29;20067;-76
2022/07/18 06:09:37;;;;;;;4.30;1.45;;;;;;;23.66;52.65;101930.63;4946864;29;20488;-75
2022/07/18 06:12:23;;;;;;;3.92;1.45;;;;;;;23.48;51.01;101934.25;4959689;29;20034;-75
2022/07/18 06:15:09;;;;;;;6.55;1.35;;;;;;;23.47;51.03;101945.91;4959481;28;20110;-75
2022/07/18 06:17:55;;;;;;;2.92;1.20;;;;;;;23.53;50.92;101935.75;4959086;29;20070;-75
2022/07/18 06:20:41;;;;;;;2.15;1.30;;;;;;;23.40;50.14;101929.31;4958888;29;20055;-74
2022/07/18 06:23:27;;;;;;;3.25;1.13;;;;;;;23.58;49.85;101931.00;4944108;28;20529;-75
2022/07/18 06:26:12;;;;;;;2.97;1.20;;;;;;;23.58;49.57;101938.19;4945622;29;20062;-75
2022/07/18 06:28:58;;;;;;;3.63;1.10;;;;;;;23.80;49.11;101930.75;4960182;29;20019;-76
2022/07/18 06:31:44;;;;;;;8.80;1.40;;;;;;;24.17;47.56;101935.91;4958657;29;20110;-75
2022/07/18 06:34:30;;;;;;;1.92;1.00;;;;;;;24.18;46.67;101934.97;4945031;29;20046;-76
2022/07/18 06:37:15;;;;;;;2.00;1.20;;;;;;;24.15;45.55;101940.50;4944794;29;20377;-75
2022/07/18 06:40:02;;;;;;;1.80;1.13;;;;;;;24.33;45.96;101945.72;4945551;29;20118;-75
2022/07/18 06:42:48;;;;;;;4.22;1.50;;;;;;;24.41;45.58;101948.84;4944884;29;20027;-75
2022/07/18 06:45:34;;;;;;;2.47;1.35;;;;;;;24.12;46.12;101948.69;4959151;29;20034;-76
2022/07/18 06:48:20;;;;;;;3.08;1.30;;;;;;;24.02;45.89;101950.97;4958731;29;20023;-75
2022/07/18 06:51:06;;;;;;;1.77;1.15;;;;;;;24.29;46.10;101940.59;4959163;29;20027;-75
2022/07/18 06:53:52;;;;;;;3.65;1.35;;;;;;;24.54;45.81;101943.63;4957860;28;20182;-75
2022/07/18 06:56:38;;;;;;;7.65;1.80;;;;;;;24.83;45.58;101940.25;4958701;29;20377;-76
2022/07/18 06:59:23;;;;;;;8.50;1.20;;;;;;;24.96;45.07;101936.75;4958544;29;20213;-76
2022/07/18 07:02:09;;;;;;;2.92;1.10;;;;;;;24.54;45.34;101938.28;4959432;29;20485;-75
2022/07/18 07:04:55;;;;;;;4.18;1.45;;;;;;;24.54;45.87;101944.50;4957942;28;20071;-75
2022/07/18 07:07:42;;;;;;;4.10;1.50;;;;;;;24.57;46.10;101935.44;4957749;29;20042;-75
2022/07/18 07:10:27;;;;;;;3.08;1.17;;;;;;;24.35;45.88;101946.47;4956335;29;20373;-76
2022/07/18 07:13:13;;;;;;;5.35;1.38;;;;;;;24.55;45.94;101940.88;4958136;28;20031;-75
2022/07/18 07:15:59;;;;;;;3.72;1.40;;;;;;;24.60;45.27;101936.16;4958326;29;20074;-74
2022/07/18 07:18:45;;;;;;;8.05;1.50;;;;;;;24.86;45.25;101930.19;4957605;29;20059;-75
2022/07/18 07:21:30;;;;;;;3.28;1.15;;;;;;;24.55;45.98;101932.84;4958856;29;20031;-75
2022/07/18 07:24:16;;;;;;;3.45;1.38;;;;;;;24.58;46.14;101938.03;4944300;29;20050;-74
2022/07/18 07:27:02;;;;;;;4.88;1.38;;;;;;;24.64;46.36;101924.34;4957723;29;20082;-75
2022/07/18 07:29:48;;;;;;;3.75;1.20;;;;;;;24.79;46.09;101931.47;4958388;29;20124;-75
2022/07/18 07:32:35;;;;;;;3.35;1.30;;;;;;;25.31;45.62;101932.91;4958488;29;20098;-75
2022/07/18 07:35:22;;;;;;;4.70;1.50;;;;;;;25.14;45.99;101932.13;4957170;28;20070;-75
2022/07/18 07:38:07;;;;;;;3.25;1.10;;;;;;;24.99;45.98;101925.00;4944876;29;20304;-75
2022/07/18 07:40:54;;;;;;;3.38;1.20;;;;;;;24.60;45.89;101929.91;4957791;29;20122;-75
2022/07/18 07:43:40;;;;;;;1.92;1.30;;;;;;;25.05;45.06;101928.19;4945258;28;20418;-76
2022/07/18 07:46:25;;;;;;;4.15;1.30;;;;;;;24.63;45.58;101919.91;4957618;29;20059;-76
2022/07/18 07:49:11;;;;;;;1.45;1.00;;;;;;;25.00;44.74;101922.19;4943707;29;20069;-76
2022/07/18 07:51:57;;;;;;;2.60;2.00;;;;;;;25.62;44.04;101918.50;4957888;29;20359;-76
2022/07/18 07:54:46;;;;;;;2.05;1.10;;;;;;;25.11;44.74;101913.56;4957463;28;20509;-76
2022/07/18 07:57:32;;;;;;;1.63;1.20;;;;;;;25.35;44.59;101929.06;4957384;29;20035;-76
2022/07/18 08:00:18;;;;;;;1.15;1.05;;;;;;;26.02;43.63;101907.06;4956823;29;20027;-75
2022/07/18 08:03:06;;;;;;;1.65;1.30;;;;;;;26.66;42.13;101905.56;4957150;29;20027;-75
2022/07/18 08:05:52;;;;;;;5.43;1.50;;;;;;;26.29;42.51;101905.31;4943867;29;20117;-76
2022/07/18 08:08:38;;;;;;;9.38;5.78;;;;;;;26.33;42.19;101909.53;4958217;29;20023;-75
2022/07/18 08:11:24;;;;;;;4.47;2.45;;;;;;;26.92;41.84;101903.84;4943189;29;20027;-76
2022/07/18 08:14:09;;;;;;;5.13;1.60;;;;;;;27.35;40.69;101903.59;4957038;28;20457;-75
2022/07/18 08:16:55;;;;;;;4.10;1.75;;;;;;;27.25;40.41;101912.41;4957975;29;20418;-75
2022/07/18 08:19:41;;;;;;;2.20;1.30;;;;;;;27.42;39.18;101907.59;4956853;28;20114;-74
2022/07/18 08:22:27;;;;;;;7.80;1.90;;;;;;;27.80;39.52;101915.69;4957244;29;20568;-75
2022/07/18 08:25:12;;;;;;;4.13;2.72;;;;;;;28.24;38.38;101901.78;4956117;28;20366;-76
2022/07/18 08:27:59;;;;;;;2.45;1.23;;;;;;;28.02;37.67;101896.19;4957487;29;20039;-74
2022/07/18 08:30:45;;;;;;;5.15;1.40;;;;;;;28.09;37.61;101900.19;4956776;29;20027;-76
2022/07/18 08:33:31;;;;;;;6.80;1.27;;;;;;;28.23;38.13;101903.59;4957428;28;20074;-75
2022/07/18 08:36:17;;;;;;;2.10;1.25;;;;;;;27.93;37.23;101899.56;4957196;29;20142;-76
2022/07/18 08:39:02;;;;;;;3.60;1.30;;;;;;;27.59;38.00;101906.41;4957631;29;20026;-77
2022/07/18 08:41:51;;;;;;;2.30;1.20;;;;;;;28.25;37.43;101893.56;4959455;29;20065;-77
2022/07/18 08:44:39;;;;;;;3.40;1.10;;;;;;;27.87;37.38;101897.28;4958135;28;20054;-76
2022/07/18 08:47:30;;;;;;;4.15;1.30;;;;;;;28.16;36.99;101896.09;4958272;29;20023;-75
2022/07/18 08:50:16;;;;;;;2.65;1.20;;;;;;;27.73;36.60;101902.75;4957697;29;20031;-76
2022/07/18 08:53:02;;;;;;;1.42;1.17;;;;;;;28.02;37.04;101898.88;4956790;29;20461;-76
2022/07/18 08:55:48;;;;;;;2.67;1.30;;;;;;;28.73;36.88;101898.09;4956362;29;20023;-76
2022/07/18 08:58:37;;;;;;;1.60;1.10;;;;;;;28.69;36.20;101899.28;4956470;29;20395;-76
2022/07/18 09:01:23;;;;;;;2.95;1.20;;;;;;;28.97;35.95;101892.72;4956177;29;20069;-75
2022/07/18 09:04:33;;;;;;;5.03;1.30;;;;;;;28.13;37.46;101891.78;4956457;28;20038;-76
2022/07/18 09:07:30;;;;;;;4.35;1.42;;;;;;;28.48;37.24;101887.41;4956480;29;20027;-75
2022/07/18 09:10:16;;;;;;;5.63;1.60;;;;;;;28.66;37.13;101888.75;4956284;29;20111;-76
2022/07/18 09:13:02;;;;;;;12.95;1.55;;;;;;;27.67;37.87;101893.28;4955692;29;20138;-76
2022/07/18 09:16:09;;;;;;;3.22;1.23;;;;;;;28.17;37.71;101890.59;4956939;29;20035;-76
2022/07/18 09:18:55;;;;;;;2.78;1.60;;;;;;;27.85;38.35;101892.03;4942187;29;20446;-75
2022/07/18 09:21:40;;;;;;;3.20;1.33;;;;;;;27.67;38.38;101892.41;4956159;29;20030;-75
2022/07/18 09:24:26;;;;;;;3.03;1.30;;;;;;;28.78;36.89;101877.06;4956300;28;20469;-78
2022/07/18 09:27:33;;;;;;;2.30;1.20;;;;;;;28.48;37.37;101882.00;4956360;29;20371;-75
2022/07/18 09:30:32;;;;;;;1.58;1.20;;;;;;;29.08;35.92;101881.97;4956222;29;20057;-76
2022/07/18 09:33:20;;;;;;;4.72;1.20;;;;;;;29.38;35.42;101891.31;4945015;28;20445;-76
2022/07/18 09:36:06;;;;;;;5.50;2.10;;;;;;;28.27;36.74;101880.84;4960144;29;20038;-74
2022/07/18 09:38:52;;;;;;;4.25;3.05;;;;;;;28.66;36.16;101879.78;4960177;29;20043;-76
2022/07/18 09:41:37;;;;;;;2.58;1.48;;;;;;;28.64;36.18;101881.75;4959194;29;20031;-76
2022/07/18 09:44:23;;;;;;;1.75;1.30;;;;;;;29.05;35.84;101880.38;4946484;29;20062;-75
2022/07/18 09:47:09;;;;;;;2.40;1.00;;;;;;;28.36;35.39;101872.09;4960208;29;20102;-75
2022/07/18 09:49:56;;;;;;;5.82;2.78;;;;;;;28.56;36.46;101879.59;4959183;29;20039;-76
2022/07/18 09:52:41;;;;;;;2.58;1.10;;;;;;;28.27;34.90;101871.88;4959674;29;20043;-77
2022/07/18 09:55:27;;;;;;;4.03;1.27;;;;;;;28.63;34.93;101872.78;4958842;28;20054;-76
2022/07/18 09:58:17;;;;;;;2.30;1.30;;;;;;;28.55;35.76;101866.22;4959365;29;20114;-75
2022/07/18 10:01:04;;;;;;;3.42;1.20;;;;;;;28.88;34.98;101879.88;4959488;29;20031;-76
2022/07/18 10:03:50;;;;;;;5.40;4.47;;;;;;;29.13;34.77;101875.25;4945837;28;20031;-76
2022/07/18 10:06:38;;;;;;;4.15;1.17;;;;;;;29.57;33.70;101875.41;4958682;29;20434;-76
2022/07/18 10:09:25;;;;;;;3.30;1.38;;;;;;;29.16;34.41;101877.72;4958982;29;20035;-75
2022/07/18 10:12:11;;;;;;;1.95;1.20;;;;;;;28.66;35.49;101871.69;4959014;29;20468;-75
2022/07/18 10:14:58;;;;;;;1.60;1.20;;;;;;;28.69;35.80;101866.09;4959173;28;20046;-76
2022/07/18 10:17:47;;;;;;;5.97;1.50;;;;;;;29.12;35.36;101864.56;4959237;29;20027;-76
2022/07/18 10:20:37;;;;;;;3.38;1.30;;;;;;;28.59;35.37;101865.03;4959226;29;20110;-75
2022/07/18 10:23:35;;;;;;;10.15;5.63;;;;;;;28.80;35.21;101863.44;4958559;28;20031;-76
2022/07/18 10:26:21;;;;;;;5.88;1.25;;;;;;;28.02;36.09;101866.56;4959559;29;20046;-76
2022/07/18 10:29:15;;;;;;;6.57;2.00;;;;;;;28.62;35.72;101868.38;4958413;29;20039;-76
2022/07/18 10:32:04;;;;;;;5.63;1.80;;;;;;;28.45;35.95;101863.34;4959006;29;20094;-75
2022/07/18 10:34:50;;;;;;;3.70;1.20;;;;;;;28.62;35.29;101868.38;4945290;29;20121;-76
2022/07/18 10:37:36;;;;;;;3.05;1.35;;;;;;;28.18;36.32;101859.09;4958441;29;20442;-75
2022/07/18 10:40:28;;;;;;;3.42;1.88;;;;;;;28.76;35.35;101862.78;4945972;29;20027;-75
2022/07/18 10:43:29;;;;;;;6.22;1.80;;;;;;;28.43;35.50;101856.34;4957649;28;20063;-75
2022/07/18 10:46:15;;;;;;;4.93;2.10;;;;;;;28.65;35.61;101857.34;4958617;29;20039;-75
2022/07/18 10:49:01;;;;;;;5.28;1.58;;;;;;;28.53;34.92;101860.09;4958111;29;20058;-75
2022/07/18 10:51:46;;;;;;;3.13;1.33;;;;;;;28.35;34.27;101856.00;4958765;29;20063;-75
2022/07/18 10:54:32;;;;;;;1.60;1.30;;;;;;;27.99;35.35;101850.59;4958502;28;20529;-76
2022/07/18 10:57:18;;;;;;;4.45;1.50;;;;;;;28.21;35.67;101842.69;4958656;29;20106;-75
2022/07/18 11:00:08;;;;;;;4.88;1.60;;;;;;;28.48;35.67;101836.16;4957968;29;20038;-75
2022/07/18 11:03:00;;;;;;;7.35;3.58;;;;;;;29.13;35.03;101842.84;4944478;29;20027;-75
2022/07/18 11:05:55;;;;;;;1.98;1.25;;;;;;;28.66;34.68;101839.31;4957362;29;20116;-77
2022/07/18 11:08:41;;;;;;;2.90;1.30;;;;;;;29.24;34.10;101840.19;4958330;29;20167;-76
2022/07/18 11:11:29;;;;;;;3.35;1.40;;;;;;;29.77;34.00;101830.63;4943965;29;20026;-76
2022/07/18 11:14:54;;;;;;;2.97;1.42;;;;;;;29.78;33.39;101822.38;4958431;28;20351;-75
2022/07/18 11:17:59;;;;;;;1.70;1.38;;;;;;;29.41;33.54;101826.22;4957623;29;20118;-76
2022/07/18 11:20:44;;;;;;;2.60;1.58;;;;;;;29.81;34.28;101819.44;4958020;29;20135;-76
2022/07/18 11:23:30;;;;;;;3.45;1.60;;;;;;;29.58;34.38;101814.16;4956701;28;20054;-76
2022/07/18 11:26:19;;;;;;;4.22;1.50;;;;;;;29.94;34.21;101803.94;4957461;29;20070;-75
2022/07/18 11:29:11;;;;;;;2.08;1.50;;;;;;;30.25;34.87;101808.59;4958249;29;20342;-75
2022/07/18 11:31:58;;;;;;;4.43;1.63;;;;;;;30.22;34.27;101816.13;4957986;29;20521;-75
2022/07/18 11:34:50;;;;;;;2.60;1.58;;;;;;;30.05;33.78;101809.34;4957112;28;20063;-76
2022/07/18 11:37:36;;;;;;;4.18;1.83;;;;;;;29.66;34.49;101811.69;4957242;29;20366;-77
2022/07/18 11:40:22;;;;;;;5.18;2.17;;;;;;;30.23;34.05;101807.88;4944166;29;20434;-76
2022/07/18 11:43:08;;;;;;;2.13;1.42;;;;;;;30.47;34.48;101797.75;4957099;29;20031;-76
2022/07/18 11:46:22;;;;;;;4.50;1.42;;;;;;;29.89;35.23;101792.63;4958004;29;20056;-76
2022/07/18 11:49:08;;;;;;;2.33;1.48;;;;;;;29.82;34.26;101783.31;4956934;29;20089;-75
2022/07/18 11:51:53;;;;;;;4.40;1.83;;;;;;;30.24;34.40;101787.09;4958133;29;20119;-75
2022/07/18 11:54:39;;;;;;;2.03;1.48;;;;;;;29.77;34.19;101788.22;4957280;28;20114;-76
2022/07/18 11:57:27;;;;;;;2.72;1.38;;;;;;;30.14;33.63;101788.84;4957480;29;20041;-76
2022/07/18 12:00:19;;;;;;;3.38;1.50;;;;;;;29.86;33.75;101784.78;4943982;29;20037;-75
2022/07/18 12:03:06;;;;;;;1.65;1.45;;;;;;;29.66;34.17;101777.41;4956828;29;20458;-75
2022/07/18 12:05:53;;;;;;;3.47;1.73;;;;;;;30.27;34.74;101778.72;4956785;29;20062;-76
2022/07/18 12:08:45;;;;;;;2.92;1.45;;;;;;;30.22;34.45;101773.69;4957517;29;20051;-75
2022/07/18 12:11:35;;;;;;;3.80;2.35;;;;;;;30.42;34.55;101772.88;4956498;29;20093;-75
2022/07/18 12:14:21;;;;;;;2.67;1.40;;;;;;;30.25;34.39;101780.69;4956536;28;20035;-75
2022/07/18 12:17:07;;;;;;;3.22;1.30;;;;;;;30.27;34.04;101774.19;4957177;29;20035;-75
2022/07/18 12:20:09;;;;;;;3.00;1.77;;;;;;;30.01;34.27;101766.47;4956134;29;20027;-77
2022/07/18 12:23:11;;;;;;;2.70;1.60;;;;;;;30.07;33.86;101769.53;4956912;29;20037;-76
2022/07/18 12:25:57;;;;;;;4.03;1.70;;;;;;;29.93;34.03;101761.69;4956335;29;20145;-75
2022/07/18 12:28:43;;;;;;;2.40;1.50;;;;;;;30.52;33.53;101764.88;4956655;29;20042;-75
2022/07/18 12:31:43;;;;;;;3.40;1.88;;;;;;;30.81;33.13;101761.44;4942755;29;20027;-75
2022/07/18 12:34:29;;;;;;;2.38;1.70;;;;;;;30.62;33.17;101763.13;4956242;28;20035;-76
2022/07/18 12:37:23;;;;;;;3.03;1.50;;;;;;;30.64;33.37;101758.41;4956546;29;20094;-76
2022/07/18 12:40:13;;;;;;;2.15;1.30;;;;;;;30.73;32.47;101760.38;4956182;29;20027;-76
2022/07/18 12:43:10;;;;;;;2.65;1.33;;;;;;;30.33;32.51;101749.31;4956476;29;20035;-76
2022/07/18 12:45:57;;;;;;;1.95;1.40;;;;;;;29.86;33.22;101746.09;4956048;29;20441;-77
2022/07/18 12:48:43;;;;;;;4.00;1.45;;;;;;;30.73;32.25;101745.00;4942777;29;20041;-75
2022/07/18 12:51:30;;;;;;;1.40;1.27;;;;;;;30.69;31.77;101753.50;4957184;29;20022;-75
2022/07/18 12:54:17;;;;;;;1.50;1.40;;;;;;;30.50;32.51;101748.75;4955939;28;20410;-75
2022/07/18 12:57:03;;;;;;;3.80;1.27;;;;;;;30.63;32.74;101746.75;4956441;29;20035;-75